sensor_id;sensor_type;location;lat;lon;timestamp;temperature;humidity
582;DHT22;277;50.074;8.436;2023-01-19T00:01:26;2.40;99.90
582;DHT22;277;50.074;8.436;2023-01-19T00:03:54;2.50;99.90
582;DHT22;277;50.074;8.436;2023-01-19T00:06:22;2.50;99.90
582;DHT22;277;50.074;8.436;2023-01-19T00:08:49;2.60;99.90
582;DHT22;277;50.074;8.436;2023-01-19T00:11:17;2.60;99.90
582;DHT22;277;50.074;8.436;2023-01-19T00:13:45;2.60;99.90
582;DHT22;277;50.074;8.436;2023-01-19T00:16:18;2.60;99.90
582;DHT22;277;50.074;8.436;2023-01-19T00:18:49;2.60;99.90
582;DHT22;277;50.074;8.436;2023-01-19T00:21:18;2.60;99.90
582;DHT22;277;50.074;8.436;2023-01-19T00:23:47;2.70;99.90
582;DHT22;277;50.074;8.436;2023-01-19T00:26:17;2.60;99.90
582;DHT22;277;50.074;8.436;2023-01-19T00:28:45;2.50;99.90
582;DHT22;277;50.074;8.436;2023-01-19T00:31:16;2.30;99.90
582;DHT22;277;50.074;8.436;2023-01-19T00:33:46;2.30;99.90
582;DHT22;277;50.074;8.436;2023-01-19T00:36:15;2.40;99.90
582;DHT22;277;50.074;8.436;2023-01-19T00:38:43;2.40;99.90
582;DHT22;277;50.074;8.436;2023-01-19T00:41:11;2.40;99.90
582;DHT22;277;50.074;8.436;2023-01-19T00:43:39;2.20;99.90
582;DHT22;277;50.074;8.436;2023-01-19T00:46:07;2.20;99.90
582;DHT22;277;50.074;8.436;2023-01-19T00:48:36;2.10;99.90
582;DHT22;277;50.074;8.436;2023-01-19T00:51:04;2.10;99.90
582;DHT22;277;50.074;8.436;2023-01-19T00:53:32;2.10;99.90
582;DHT22;277;50.074;8.436;2023-01-19T00:56:00;2.00;99.90
582;DHT22;277;50.074;8.436;2023-01-19T00:58:27;2.00;99.90
582;DHT22;277;50.074;8.436;2023-01-19T01:00:55;2.00;99.90
582;DHT22;277;50.074;8.436;2023-01-19T01:03:29;1.90;99.90
582;DHT22;277;50.074;8.436;2023-01-19T01:05:58;1.80;99.90
582;DHT22;277;50.074;8.436;2023-01-19T01:08:26;1.90;99.90
582;DHT22;277;50.074;8.436;2023-01-19T01:10:54;2.10;99.90
582;DHT22;277;50.074;8.436;2023-01-19T01:13:22;2.20;99.90
582;DHT22;277;50.074;8.436;2023-01-19T01:15:54;2.30;99.90
582;DHT22;277;50.074;8.436;2023-01-19T01:18:22;2.30;99.90
582;DHT22;277;50.074;8.436;2023-01-19T01:20:50;2.50;99.90
582;DHT22;277;50.074;8.436;2023-01-19T01:23:22;2.50;99.90
582;DHT22;277;50.074;8.436;2023-01-19T01:25:50;2.50;99.90
582;DHT22;277;50.074;8.436;2023-01-19T01:28:18;2.60;99.90
582;DHT22;277;50.074;8.436;2023-01-19T01:30:46;2.70;99.90
582;DHT22;277;50.074;8.436;2023-01-19T01:33:14;2.70;99.90
582;DHT22;277;50.074;8.436;2023-01-19T01:36:02;2.70;99.90
582;DHT22;277;50.074;8.436;2023-01-19T01:38:31;2.70;99.90
582;DHT22;277;50.074;8.436;2023-01-19T01:40:59;2.70;99.90
582;DHT22;277;50.074;8.436;2023-01-19T01:43:41;2.80;99.90
582;DHT22;277;50.074;8.436;2023-01-19T01:46:11;2.70;99.90
582;DHT22;277;50.074;8.436;2023-01-19T01:48:43;2.60;99.90
582;DHT22;277;50.074;8.436;2023-01-19T01:51:14;2.50;99.90
582;DHT22;277;50.074;8.436;2023-01-19T01:54:03;2.50;99.90
582;DHT22;277;50.074;8.436;2023-01-19T01:56:34;2.50;99.90
582;DHT22;277;50.074;8.436;2023-01-19T01:59:05;2.50;99.90
582;DHT22;277;50.074;8.436;2023-01-19T02:01:34;2.40;99.90
582;DHT22;277;50.074;8.436;2023-01-19T02:04:21;1.90;99.90
582;DHT22;277;50.074;8.436;2023-01-19T02:06:49;1.40;99.90
582;DHT22;277;50.074;8.436;2023-01-19T02:09:36;0.80;99.90
582;DHT22;277;50.074;8.436;2023-01-19T02:12:22;1.00;99.90
582;DHT22;277;50.074;8.436;2023-01-19T02:15:15;1.40;99.90
582;DHT22;277;50.074;8.436;2023-01-19T02:17:43;1.70;99.90
582;DHT22;277;50.074;8.436;2023-01-19T02:20:11;1.60;99.90
582;DHT22;277;50.074;8.436;2023-01-19T02:22:44;1.70;99.90
582;DHT22;277;50.074;8.436;2023-01-19T02:25:16;2.00;99.90
582;DHT22;277;50.074;8.436;2023-01-19T02:27:45;2.10;99.90
582;DHT22;277;50.074;8.436;2023-01-19T02:30:13;2.30;99.90
582;DHT22;277;50.074;8.436;2023-01-19T02:32:42;2.30;99.90
582;DHT22;277;50.074;8.436;2023-01-19T02:35:10;2.50;99.90
582;DHT22;277;50.074;8.436;2023-01-19T02:37:39;2.60;99.90
582;DHT22;277;50.074;8.436;2023-01-19T02:40:10;2.80;99.90
582;DHT22;277;50.074;8.436;2023-01-19T02:42:42;2.90;99.90
582;DHT22;277;50.074;8.436;2023-01-19T02:45:13;2.80;99.90
582;DHT22;277;50.074;8.436;2023-01-19T02:47:44;2.80;99.90
582;DHT22;277;50.074;8.436;2023-01-19T02:50:46;2.90;99.90
582;DHT22;277;50.074;8.436;2023-01-19T02:53:31;2.90;99.90
582;DHT22;277;50.074;8.436;2023-01-19T02:56:09;2.60;99.90
582;DHT22;277;50.074;8.436;2023-01-19T02:58:49;2.50;99.90
582;DHT22;277;50.074;8.436;2023-01-19T03:01:25;2.00;99.90
582;DHT22;277;50.074;8.436;2023-01-19T03:03:57;1.20;99.90
582;DHT22;277;50.074;8.436;2023-01-19T03:06:35;0.60;99.90
582;DHT22;277;50.074;8.436;2023-01-19T03:09:10;0.20;99.90
582;DHT22;277;50.074;8.436;2023-01-19T03:11:43;-0.30;99.90
582;DHT22;277;50.074;8.436;2023-01-19T03:14:19;-0.20;99.90
582;DHT22;277;50.074;8.436;2023-01-19T03:16:51;-0.60;99.90
582;DHT22;277;50.074;8.436;2023-01-19T03:19:23;-0.40;99.90
582;DHT22;277;50.074;8.436;2023-01-19T03:21:56;-0.20;99.90
582;DHT22;277;50.074;8.436;2023-01-19T03:24:28;0.00;99.90
582;DHT22;277;50.074;8.436;2023-01-19T03:26:59;0.40;99.90
582;DHT22;277;50.074;8.436;2023-01-19T03:29:31;0.80;99.90
582;DHT22;277;50.074;8.436;2023-01-19T03:32:05;1.10;99.90
582;DHT22;277;50.074;8.436;2023-01-19T03:34:36;1.40;99.90
582;DHT22;277;50.074;8.436;2023-01-19T03:37:06;1.50;99.90
582;DHT22;277;50.074;8.436;2023-01-19T03:39:36;1.70;99.90
582;DHT22;277;50.074;8.436;2023-01-19T03:42:07;1.80;99.90
582;DHT22;277;50.074;8.436;2023-01-19T03:44:38;2.00;99.90
582;DHT22;277;50.074;8.436;2023-01-19T03:47:09;2.20;99.90
582;DHT22;277;50.074;8.436;2023-01-19T03:49:38;2.20;99.90
582;DHT22;277;50.074;8.436;2023-01-19T03:52:08;2.30;99.90
582;DHT22;277;50.074;8.436;2023-01-19T03:54:36;2.40;99.90
582;DHT22;277;50.074;8.436;2023-01-19T03:57:04;2.40;99.90
582;DHT22;277;50.074;8.436;2023-01-19T03:59:32;2.40;99.90
582;DHT22;277;50.074;8.436;2023-01-19T04:02:02;2.30;99.90
582;DHT22;277;50.074;8.436;2023-01-19T04:04:30;2.30;99.90
582;DHT22;277;50.074;8.436;2023-01-19T04:06:58;2.40;99.90
582;DHT22;277;50.074;8.436;2023-01-19T04:09:26;2.40;99.90
582;DHT22;277;50.074;8.436;2023-01-19T04:11:54;2.50;99.90
582;DHT22;277;50.074;8.436;2023-01-19T04:14:22;2.50;99.90
582;DHT22;277;50.074;8.436;2023-01-19T04:16:50;2.40;99.90
582;DHT22;277;50.074;8.436;2023-01-19T04:19:19;2.50;99.90
582;DHT22;277;50.074;8.436;2023-01-19T04:21:47;2.60;99.90
582;DHT22;277;50.074;8.436;2023-01-19T04:24:16;2.40;99.90
582;DHT22;277;50.074;8.436;2023-01-19T04:26:44;2.40;99.90
582;DHT22;277;50.074;8.436;2023-01-19T04:29:12;2.30;99.90
582;DHT22;277;50.074;8.436;2023-01-19T04:31:40;2.20;99.90
582;DHT22;277;50.074;8.436;2023-01-19T04:34:08;2.00;99.90
582;DHT22;277;50.074;8.436;2023-01-19T04:36:37;1.80;99.90
582;DHT22;277;50.074;8.436;2023-01-19T04:39:05;1.80;99.90
582;DHT22;277;50.074;8.436;2023-01-19T04:41:34;1.80;99.90
582;DHT22;277;50.074;8.436;2023-01-19T04:44:02;2.00;99.90
582;DHT22;277;50.074;8.436;2023-01-19T04:46:30;1.80;99.90
582;DHT22;277;50.074;8.436;2023-01-19T04:48:58;1.40;99.90
582;DHT22;277;50.074;8.436;2023-01-19T04:51:26;1.10;99.90
582;DHT22;277;50.074;8.436;2023-01-19T04:53:56;1.10;99.90
582;DHT22;277;50.074;8.436;2023-01-19T04:56:24;1.10;99.90
582;DHT22;277;50.074;8.436;2023-01-19T04:58:52;1.30;99.90
582;DHT22;277;50.074;8.436;2023-01-19T05:01:20;1.50;99.90
582;DHT22;277;50.074;8.436;2023-01-19T05:03:48;1.60;99.90
582;DHT22;277;50.074;8.436;2023-01-19T05:06:16;1.80;99.90
582;DHT22;277;50.074;8.436;2023-01-19T05:08:43;1.90;99.90
582;DHT22;277;50.074;8.436;2023-01-19T05:11:13;1.80;99.90
582;DHT22;277;50.074;8.436;2023-01-19T05:13:41;2.00;99.90
582;DHT22;277;50.074;8.436;2023-01-19T05:16:08;2.20;99.90
582;DHT22;277;50.074;8.436;2023-01-19T05:18:37;2.20;99.90
582;DHT22;277;50.074;8.436;2023-01-19T05:21:05;2.20;99.90
582;DHT22;277;50.074;8.436;2023-01-19T05:23:33;2.20;99.90
582;DHT22;277;50.074;8.436;2023-01-19T05:26:01;2.30;99.90
582;DHT22;277;50.074;8.436;2023-01-19T05:28:31;2.20;99.90
582;DHT22;277;50.074;8.436;2023-01-19T05:30:59;2.10;99.90
582;DHT22;277;50.074;8.436;2023-01-19T05:33:28;2.20;99.90
582;DHT22;277;50.074;8.436;2023-01-19T05:35:56;2.30;99.90
582;DHT22;277;50.074;8.436;2023-01-19T05:38:23;2.40;99.90
582;DHT22;277;50.074;8.436;2023-01-19T05:41:01;2.20;99.90
582;DHT22;277;50.074;8.436;2023-01-19T05:43:28;2.30;99.90
582;DHT22;277;50.074;8.436;2023-01-19T05:45:58;2.50;99.90
582;DHT22;277;50.074;8.436;2023-01-19T05:48:25;2.60;99.90
582;DHT22;277;50.074;8.436;2023-01-19T05:50:56;2.70;99.90
582;DHT22;277;50.074;8.436;2023-01-19T05:53:24;2.80;99.90
582;DHT22;277;50.074;8.436;2023-01-19T05:55:52;2.90;99.90
582;DHT22;277;50.074;8.436;2023-01-19T05:58:20;3.00;99.90
582;DHT22;277;50.074;8.436;2023-01-19T06:00:48;3.30;99.90
582;DHT22;277;50.074;8.436;2023-01-19T06:03:17;3.30;99.90
582;DHT22;277;50.074;8.436;2023-01-19T06:05:45;3.40;99.90
582;DHT22;277;50.074;8.436;2023-01-19T06:08:13;3.20;99.90
582;DHT22;277;50.074;8.436;2023-01-19T06:10:41;2.90;99.90
582;DHT22;277;50.074;8.436;2023-01-19T06:13:08;2.60;99.90
582;DHT22;277;50.074;8.436;2023-01-19T06:15:36;2.20;99.90
582;DHT22;277;50.074;8.436;2023-01-19T06:18:04;1.90;99.90
582;DHT22;277;50.074;8.436;2023-01-19T06:20:34;1.70;99.90
582;DHT22;277;50.074;8.436;2023-01-19T06:23:02;1.50;99.90
582;DHT22;277;50.074;8.436;2023-01-19T06:25:30;1.20;99.90
582;DHT22;277;50.074;8.436;2023-01-19T06:27:57;0.90;99.90
582;DHT22;277;50.074;8.436;2023-01-19T06:30:25;0.60;99.90
582;DHT22;277;50.074;8.436;2023-01-19T06:32:54;0.50;99.90
582;DHT22;277;50.074;8.436;2023-01-19T06:35:22;0.30;99.90
582;DHT22;277;50.074;8.436;2023-01-19T06:37:52;0.30;99.90
582;DHT22;277;50.074;8.436;2023-01-19T06:40:20;0.30;99.90
582;DHT22;277;50.074;8.436;2023-01-19T06:42:47;0.20;99.90
582;DHT22;277;50.074;8.436;2023-01-19T06:45:15;0.10;99.90
582;DHT22;277;50.074;8.436;2023-01-19T06:47:46;0.10;99.90
582;DHT22;277;50.074;8.436;2023-01-19T06:50:14;0.10;99.90
582;DHT22;277;50.074;8.436;2023-01-19T06:52:41;0.10;99.90
582;DHT22;277;50.074;8.436;2023-01-19T06:55:11;0.10;99.90
582;DHT22;277;50.074;8.436;2023-01-19T06:57:40;0.10;99.90
582;DHT22;277;50.074;8.436;2023-01-19T07:00:09;0.10;99.90
582;DHT22;277;50.074;8.436;2023-01-19T07:02:40;0.10;99.90
582;DHT22;277;50.074;8.436;2023-01-19T07:05:09;0.20;99.90
582;DHT22;277;50.074;8.436;2023-01-19T07:07:40;0.10;99.90
582;DHT22;277;50.074;8.436;2023-01-19T07:10:11;0.10;99.90
582;DHT22;277;50.074;8.436;2023-01-19T07:12:41;0.10;99.90
582;DHT22;277;50.074;8.436;2023-01-19T07:15:12;0.00;99.90
582;DHT22;277;50.074;8.436;2023-01-19T07:17:40;-0.10;99.90
582;DHT22;277;50.074;8.436;2023-01-19T07:20:09;-0.10;99.90
582;DHT22;277;50.074;8.436;2023-01-19T07:22:38;-0.10;99.90
582;DHT22;277;50.074;8.436;2023-01-19T07:25:07;-0.20;99.90
582;DHT22;277;50.074;8.436;2023-01-19T07:27:36;-0.20;99.90
582;DHT22;277;50.074;8.436;2023-01-19T07:30:07;-0.10;99.90
582;DHT22;277;50.074;8.436;2023-01-19T07:32:34;0.00;99.90
582;DHT22;277;50.074;8.436;2023-01-19T07:35:03;0.00;99.90
582;DHT22;277;50.074;8.436;2023-01-19T07:37:32;0.10;99.90
582;DHT22;277;50.074;8.436;2023-01-19T07:39:59;0.10;99.90
582;DHT22;277;50.074;8.436;2023-01-19T07:42:27;0.10;99.90
582;DHT22;277;50.074;8.436;2023-01-19T07:44:56;0.20;99.90
582;DHT22;277;50.074;8.436;2023-01-19T07:47:24;0.30;99.90
582;DHT22;277;50.074;8.436;2023-01-19T07:49:52;0.20;99.90
582;DHT22;277;50.074;8.436;2023-01-19T07:52:20;0.20;99.90
582;DHT22;277;50.074;8.436;2023-01-19T07:54:48;0.20;99.90
582;DHT22;277;50.074;8.436;2023-01-19T07:57:16;0.30;99.90
582;DHT22;277;50.074;8.436;2023-01-19T07:59:45;0.30;99.90
582;DHT22;277;50.074;8.436;2023-01-19T08:02:14;0.30;99.90
582;DHT22;277;50.074;8.436;2023-01-19T08:04:43;0.30;99.90
582;DHT22;277;50.074;8.436;2023-01-19T08:07:11;0.30;99.90
582;DHT22;277;50.074;8.436;2023-01-19T08:09:39;0.40;99.90
582;DHT22;277;50.074;8.436;2023-01-19T08:12:07;0.40;99.90
582;DHT22;277;50.074;8.436;2023-01-19T08:14:35;0.40;99.90
582;DHT22;277;50.074;8.436;2023-01-19T08:17:02;0.60;99.90
582;DHT22;277;50.074;8.436;2023-01-19T08:19:32;0.80;99.90
582;DHT22;277;50.074;8.436;2023-01-19T08:21:59;1.10;99.90
582;DHT22;277;50.074;8.436;2023-01-19T08:24:28;1.30;99.90
582;DHT22;277;50.074;8.436;2023-01-19T08:26:59;1.50;99.90
582;DHT22;277;50.074;8.436;2023-01-19T08:29:28;1.70;99.90
582;DHT22;277;50.074;8.436;2023-01-19T08:31:56;1.90;99.90
582;DHT22;277;50.074;8.436;2023-01-19T08:34:25;1.90;99.90
582;DHT22;277;50.074;8.436;2023-01-19T08:36:55;2.00;99.90
582;DHT22;277;50.074;8.436;2023-01-19T08:39:22;2.00;99.90
582;DHT22;277;50.074;8.436;2023-01-19T08:41:51;2.10;99.90
582;DHT22;277;50.074;8.436;2023-01-19T08:44:19;2.20;99.90
582;DHT22;277;50.074;8.436;2023-01-19T08:46:47;2.20;99.90
582;DHT22;277;50.074;8.436;2023-01-19T08:49:15;2.20;99.90
582;DHT22;277;50.074;8.436;2023-01-19T08:51:43;2.20;99.90
582;DHT22;277;50.074;8.436;2023-01-19T08:54:13;2.20;99.90
582;DHT22;277;50.074;8.436;2023-01-19T08:56:44;2.20;99.90
582;DHT22;277;50.074;8.436;2023-01-19T08:59:12;2.20;99.90
582;DHT22;277;50.074;8.436;2023-01-19T09:01:40;2.40;99.90
582;DHT22;277;50.074;8.436;2023-01-19T09:04:08;2.70;99.90
582;DHT22;277;50.074;8.436;2023-01-19T09:06:36;2.90;99.90
582;DHT22;277;50.074;8.436;2023-01-19T09:09:04;3.10;99.90
582;DHT22;277;50.074;8.436;2023-01-19T09:11:33;3.30;99.90
582;DHT22;277;50.074;8.436;2023-01-19T09:14:02;3.40;99.90
582;DHT22;277;50.074;8.436;2023-01-19T09:16:31;3.40;99.90
582;DHT22;277;50.074;8.436;2023-01-19T09:18:59;3.30;99.90
582;DHT22;277;50.074;8.436;2023-01-19T09:21:27;3.40;99.90
582;DHT22;277;50.074;8.436;2023-01-19T09:23:55;3.40;99.90
582;DHT22;277;50.074;8.436;2023-01-19T09:26:23;3.50;99.90
582;DHT22;277;50.074;8.436;2023-01-19T09:28:52;3.50;99.90
582;DHT22;277;50.074;8.436;2023-01-19T09:31:20;3.30;99.90
582;DHT22;277;50.074;8.436;2023-01-19T09:33:49;3.00;99.90
582;DHT22;277;50.074;8.436;2023-01-19T09:36:17;3.00;99.90
582;DHT22;277;50.074;8.436;2023-01-19T09:38:44;3.10;99.90
582;DHT22;277;50.074;8.436;2023-01-19T09:41:18;3.20;99.90
582;DHT22;277;50.074;8.436;2023-01-19T09:43:52;3.30;99.90
582;DHT22;277;50.074;8.436;2023-01-19T09:46:24;3.30;99.90
582;DHT22;277;50.074;8.436;2023-01-19T09:48:55;3.10;99.90
582;DHT22;277;50.074;8.436;2023-01-19T09:51:26;3.00;99.90
582;DHT22;277;50.074;8.436;2023-01-19T09:54:01;3.00;99.90
582;DHT22;277;50.074;8.436;2023-01-19T09:56:31;3.00;99.90
582;DHT22;277;50.074;8.436;2023-01-19T09:59:02;2.90;99.90
582;DHT22;277;50.074;8.436;2023-01-19T10:01:48;3.00;99.90
582;DHT22;277;50.074;8.436;2023-01-19T10:04:33;3.10;99.90
582;DHT22;277;50.074;8.436;2023-01-19T10:07:08;3.30;99.90
582;DHT22;277;50.074;8.436;2023-01-19T10:09:46;3.30;99.90
582;DHT22;277;50.074;8.436;2023-01-19T10:12:23;3.40;99.90
582;DHT22;277;50.074;8.436;2023-01-19T10:14:58;3.40;99.90
582;DHT22;277;50.074;8.436;2023-01-19T10:17:37;3.30;99.90
582;DHT22;277;50.074;8.436;2023-01-19T10:20:13;3.20;99.90
582;DHT22;277;50.074;8.436;2023-01-19T10:22:46;3.30;99.90
582;DHT22;277;50.074;8.436;2023-01-19T10:25:18;3.20;99.90
582;DHT22;277;50.074;8.436;2023-01-19T10:27:49;3.10;99.90
582;DHT22;277;50.074;8.436;2023-01-19T10:30:21;3.10;99.90
582;DHT22;277;50.074;8.436;2023-01-19T10:32:50;3.00;99.90
582;DHT22;277;50.074;8.436;2023-01-19T10:35:20;2.90;99.90
582;DHT22;277;50.074;8.436;2023-01-19T10:37:52;2.90;99.90
582;DHT22;277;50.074;8.436;2023-01-19T10:40:27;2.80;99.90
582;DHT22;277;50.074;8.436;2023-01-19T10:42:57;2.80;99.90
582;DHT22;277;50.074;8.436;2023-01-19T10:45:28;2.80;99.90
582;DHT22;277;50.074;8.436;2023-01-19T10:47:59;2.60;99.90
582;DHT22;277;50.074;8.436;2023-01-19T10:50:32;2.60;99.90
582;DHT22;277;50.074;8.436;2023-01-19T10:53:01;2.60;99.90
582;DHT22;277;50.074;8.436;2023-01-19T10:55:34;2.60;99.90
582;DHT22;277;50.074;8.436;2023-01-19T10:58:04;2.60;99.90
582;DHT22;277;50.074;8.436;2023-01-19T11:00:35;2.50;99.90
582;DHT22;277;50.074;8.436;2023-01-19T11:03:07;2.50;99.90
582;DHT22;277;50.074;8.436;2023-01-19T11:05:47;2.50;99.90
582;DHT22;277;50.074;8.436;2023-01-19T11:08:23;2.40;99.90
582;DHT22;277;50.074;8.436;2023-01-19T11:10:58;2.50;99.90
582;DHT22;277;50.074;8.436;2023-01-19T11:13:30;2.50;99.90
582;DHT22;277;50.074;8.436;2023-01-19T11:16:04;2.50;99.90
582;DHT22;277;50.074;8.436;2023-01-19T11:18:35;2.50;99.90
582;DHT22;277;50.074;8.436;2023-01-19T11:21:06;2.50;99.90
582;DHT22;277;50.074;8.436;2023-01-19T11:23:36;2.50;99.90
582;DHT22;277;50.074;8.436;2023-01-19T11:26:12;2.50;99.90
582;DHT22;277;50.074;8.436;2023-01-19T11:28:45;2.40;99.90
582;DHT22;277;50.074;8.436;2023-01-19T11:31:29;2.40;99.90
582;DHT22;277;50.074;8.436;2023-01-19T11:34:00;2.40;99.90
582;DHT22;277;50.074;8.436;2023-01-19T11:36:30;2.30;99.90
582;DHT22;277;50.074;8.436;2023-01-19T11:38:59;2.30;99.90
582;DHT22;277;50.074;8.436;2023-01-19T11:41:32;2.30;99.90
582;DHT22;277;50.074;8.436;2023-01-19T11:44:08;2.30;99.90
582;DHT22;277;50.074;8.436;2023-01-19T11:46:42;2.30;99.90
582;DHT22;277;50.074;8.436;2023-01-19T11:49:17;2.30;99.90
582;DHT22;277;50.074;8.436;2023-01-19T11:51:51;2.30;99.90
582;DHT22;277;50.074;8.436;2023-01-19T11:54:25;2.30;99.90
582;DHT22;277;50.074;8.436;2023-01-19T11:56:58;2.30;99.90
582;DHT22;277;50.074;8.436;2023-01-19T11:59:26;2.40;99.90
582;DHT22;277;50.074;8.436;2023-01-19T12:01:57;2.40;99.90
582;DHT22;277;50.074;8.436;2023-01-19T12:04:29;2.40;99.90
582;DHT22;277;50.074;8.436;2023-01-19T12:07:02;2.50;99.90
582;DHT22;277;50.074;8.436;2023-01-19T12:09:34;2.50;99.90
582;DHT22;277;50.074;8.436;2023-01-19T12:12:12;2.50;99.90
582;DHT22;277;50.074;8.436;2023-01-19T12:14:49;2.50;99.90
582;DHT22;277;50.074;8.436;2023-01-19T12:17:24;2.50;99.90
582;DHT22;277;50.074;8.436;2023-01-19T12:19:58;2.50;99.90
582;DHT22;277;50.074;8.436;2023-01-19T12:22:28;2.50;99.90
582;DHT22;277;50.074;8.436;2023-01-19T12:25:02;2.50;99.90
582;DHT22;277;50.074;8.436;2023-01-19T12:27:38;2.50;99.90
582;DHT22;277;50.074;8.436;2023-01-19T12:30:16;2.50;99.90
582;DHT22;277;50.074;8.436;2023-01-19T12:32:46;2.50;99.90
582;DHT22;277;50.074;8.436;2023-01-19T12:35:53;2.60;99.90
582;DHT22;277;50.074;8.436;2023-01-19T12:41:21;2.60;99.90
582;DHT22;277;50.074;8.436;2023-01-19T12:44:14;2.40;99.90
582;DHT22;277;50.074;8.436;2023-01-19T12:46:45;2.50;99.90
582;DHT22;277;50.074;8.436;2023-01-19T12:49:22;2.40;99.90
582;DHT22;277;50.074;8.436;2023-01-19T12:51:53;2.40;99.90
582;DHT22;277;50.074;8.436;2023-01-19T12:54:28;2.40;99.90
582;DHT22;277;50.074;8.436;2023-01-19T12:56:59;2.50;99.90
582;DHT22;277;50.074;8.436;2023-01-19T12:59:29;2.50;99.90
582;DHT22;277;50.074;8.436;2023-01-19T13:02:29;2.50;99.90
582;DHT22;277;50.074;8.436;2023-01-19T13:05:21;2.60;99.90
582;DHT22;277;50.074;8.436;2023-01-19T13:08:21;2.70;99.90
582;DHT22;277;50.074;8.436;2023-01-19T13:11:14;2.70;99.90
582;DHT22;277;50.074;8.436;2023-01-19T13:13:43;2.60;99.90
582;DHT22;277;50.074;8.436;2023-01-19T13:16:46;2.70;99.90
582;DHT22;277;50.074;8.436;2023-01-19T13:19:20;2.50;99.90
582;DHT22;277;50.074;8.436;2023-01-19T13:21:50;2.50;99.90
582;DHT22;277;50.074;8.436;2023-01-19T13:24:21;2.50;99.90
582;DHT22;277;50.074;8.436;2023-01-19T13:26:54;2.50;99.90
582;DHT22;277;50.074;8.436;2023-01-19T13:29:27;2.50;99.90
582;DHT22;277;50.074;8.436;2023-01-19T13:31:57;2.50;99.90
582;DHT22;277;50.074;8.436;2023-01-19T13:34:30;2.40;99.90
582;DHT22;277;50.074;8.436;2023-01-19T13:37:05;2.40;99.90
582;DHT22;277;50.074;8.436;2023-01-19T13:39:36;2.30;99.90
582;DHT22;277;50.074;8.436;2023-01-19T13:42:12;2.30;99.90
582;DHT22;277;50.074;8.436;2023-01-19T13:44:43;2.20;99.90
582;DHT22;277;50.074;8.436;2023-01-19T13:47:21;2.20;99.90
582;DHT22;277;50.074;8.436;2023-01-19T13:49:51;2.20;99.90
582;DHT22;277;50.074;8.436;2023-01-19T13:52:24;2.20;99.90
582;DHT22;277;50.074;8.436;2023-01-19T13:54:54;2.10;99.90
582;DHT22;277;50.074;8.436;2023-01-19T13:57:47;2.10;99.90
582;DHT22;277;50.074;8.436;2023-01-19T14:00:18;2.10;99.90
582;DHT22;277;50.074;8.436;2023-01-19T14:02:53;2.10;99.90
582;DHT22;277;50.074;8.436;2023-01-19T14:05:24;2.20;99.90
582;DHT22;277;50.074;8.436;2023-01-19T14:08:10;2.10;99.90
582;DHT22;277;50.074;8.436;2023-01-19T14:10:41;2.10;99.90
582;DHT22;277;50.074;8.436;2023-01-19T14:13:14;2.10;99.90
582;DHT22;277;50.074;8.436;2023-01-19T14:15:43;2.10;99.90
582;DHT22;277;50.074;8.436;2023-01-19T14:18:26;2.10;99.90
582;DHT22;277;50.074;8.436;2023-01-19T14:20:58;2.10;99.90
582;DHT22;277;50.074;8.436;2023-01-19T14:23:44;2.20;99.90
582;DHT22;277;50.074;8.436;2023-01-19T14:26:41;2.20;99.90
582;DHT22;277;50.074;8.436;2023-01-19T14:29:26;2.20;99.90
582;DHT22;277;50.074;8.436;2023-01-19T14:32:14;2.30;99.90
582;DHT22;277;50.074;8.436;2023-01-19T14:34:44;2.20;99.90
582;DHT22;277;50.074;8.436;2023-01-19T14:37:16;2.10;99.90
582;DHT22;277;50.074;8.436;2023-01-19T14:39:49;2.10;99.90
582;DHT22;277;50.074;8.436;2023-01-19T14:42:20;2.10;99.90
582;DHT22;277;50.074;8.436;2023-01-19T14:44:51;2.10;99.90
582;DHT22;277;50.074;8.436;2023-01-19T14:47:28;2.10;99.90
582;DHT22;277;50.074;8.436;2023-01-19T14:50:02;2.10;99.90
582;DHT22;277;50.074;8.436;2023-01-19T14:52:36;2.20;99.90
582;DHT22;277;50.074;8.436;2023-01-19T14:55:15;2.20;99.90
582;DHT22;277;50.074;8.436;2023-01-19T14:57:45;2.10;99.90
582;DHT22;277;50.074;8.436;2023-01-19T15:00:16;2.10;99.90
582;DHT22;277;50.074;8.436;2023-01-19T15:02:44;2.20;99.90
582;DHT22;277;50.074;8.436;2023-01-19T15:05:13;2.20;99.90
582;DHT22;277;50.074;8.436;2023-01-19T15:07:43;2.20;99.90
582;DHT22;277;50.074;8.436;2023-01-19T15:10:16;2.20;99.90
582;DHT22;277;50.074;8.436;2023-01-19T15:12:45;2.20;99.90
582;DHT22;277;50.074;8.436;2023-01-19T15:15:14;2.20;99.90
582;DHT22;277;50.074;8.436;2023-01-19T15:17:43;2.30;99.90
582;DHT22;277;50.074;8.436;2023-01-19T15:20:14;2.30;99.90
582;DHT22;277;50.074;8.436;2023-01-19T15:22:43;2.30;99.90
582;DHT22;277;50.074;8.436;2023-01-19T15:25:13;2.40;99.90
582;DHT22;277;50.074;8.436;2023-01-19T15:27:42;2.40;99.90
582;DHT22;277;50.074;8.436;2023-01-19T15:30:15;2.30;99.90
582;DHT22;277;50.074;8.436;2023-01-19T15:32:43;2.40;99.90
582;DHT22;277;50.074;8.436;2023-01-19T15:35:13;2.40;99.90
582;DHT22;277;50.074;8.436;2023-01-19T15:37:41;2.30;99.90
582;DHT22;277;50.074;8.436;2023-01-19T15:40:10;2.30;99.90
582;DHT22;277;50.074;8.436;2023-01-19T15:42:39;2.30;99.90
582;DHT22;277;50.074;8.436;2023-01-19T15:45:34;2.20;99.90
582;DHT22;277;50.074;8.436;2023-01-19T15:48:04;2.20;99.90
582;DHT22;277;50.074;8.436;2023-01-19T15:50:32;2.30;99.90
582;DHT22;277;50.074;8.436;2023-01-19T15:53:02;2.20;99.90
582;DHT22;277;50.074;8.436;2023-01-19T15:55:30;2.20;99.90
582;DHT22;277;50.074;8.436;2023-01-19T15:57:59;2.10;99.90
582;DHT22;277;50.074;8.436;2023-01-19T16:00:28;2.10;99.90
582;DHT22;277;50.074;8.436;2023-01-19T16:02:57;2.10;99.90
582;DHT22;277;50.074;8.436;2023-01-19T16:05:25;2.10;99.90
582;DHT22;277;50.074;8.436;2023-01-19T16:08:08;2.10;99.90
582;DHT22;277;50.074;8.436;2023-01-19T16:10:36;2.00;99.90
582;DHT22;277;50.074;8.436;2023-01-19T16:13:05;2.00;99.90
582;DHT22;277;50.074;8.436;2023-01-19T16:15:33;2.00;99.90
582;DHT22;277;50.074;8.436;2023-01-19T16:18:02;2.00;99.90
582;DHT22;277;50.074;8.436;2023-01-19T16:20:30;1.90;99.90
582;DHT22;277;50.074;8.436;2023-01-19T16:22:58;1.90;99.90
582;DHT22;277;50.074;8.436;2023-01-19T16:25:41;1.90;99.90
582;DHT22;277;50.074;8.436;2023-01-19T16:28:11;1.80;99.90
582;DHT22;277;50.074;8.436;2023-01-19T16:30:39;1.80;99.90
582;DHT22;277;50.074;8.436;2023-01-19T16:33:08;1.80;99.90
582;DHT22;277;50.074;8.436;2023-01-19T16:35:37;1.90;99.90
582;DHT22;277;50.074;8.436;2023-01-19T16:38:05;1.80;99.90
582;DHT22;277;50.074;8.436;2023-01-19T16:40:35;1.90;99.90
582;DHT22;277;50.074;8.436;2023-01-19T16:43:03;1.90;99.90
582;DHT22;277;50.074;8.436;2023-01-19T16:45:32;1.90;99.90
582;DHT22;277;50.074;8.436;2023-01-19T16:48:00;2.00;99.90
582;DHT22;277;50.074;8.436;2023-01-19T16:50:28;2.00;99.90
582;DHT22;277;50.074;8.436;2023-01-19T16:52:56;2.00;99.90
582;DHT22;277;50.074;8.436;2023-01-19T16:55:24;2.00;99.90
582;DHT22;277;50.074;8.436;2023-01-19T16:57:54;2.10;99.90
582;DHT22;277;50.074;8.436;2023-01-19T17:00:22;2.10;99.90
582;DHT22;277;50.074;8.436;2023-01-19T17:02:51;2.10;99.90
582;DHT22;277;50.074;8.436;2023-01-19T17:05:19;2.20;99.90
582;DHT22;277;50.074;8.436;2023-01-19T17:07:47;2.20;99.90
582;DHT22;277;50.074;8.436;2023-01-19T17:10:15;2.30;99.90
582;DHT22;277;50.074;8.436;2023-01-19T17:12:43;2.30;99.90
582;DHT22;277;50.074;8.436;2023-01-19T17:15:10;2.40;99.90
582;DHT22;277;50.074;8.436;2023-01-19T17:17:38;2.40;99.90
582;DHT22;277;50.074;8.436;2023-01-19T17:20:09;2.40;99.90
582;DHT22;277;50.074;8.436;2023-01-19T17:22:37;2.40;99.90